Time;durP1;ratioP1;P1;durP2;ratioP2;P2;SDS_P1;SDS_P2;PMS_P1;PMS_P2;Temp;Humidity;BMP_temperature;BMP_pressure;BME280_temperature;BME280_humidity;BME280_pressure;Samples;Min_cycle;Max_cycle;Signal;HPM_P1;HPM_P2
2023/03/27 00:00:55;;;;;;;0.30;0.30;;;;;;;;;;5057768;28;20045;-39
2023/03/27 00:03:22;;;;;;;1.15;0.50;;;;;;;;;;5061110;28;20024;-39
2023/03/27 00:05:47;;;;;;;0.43;0.20;;;;;;;;;;5053343;28;20043;-40
2023/03/27 00:08:13;;;;;;;0.63;0.38;;;;;;;;;;5043668;28;20027;-39
2023/03/27 00:10:39;;;;;;;0.20;0.20;;;;;;;;;;5042974;28;20500;-39
2023/03/27 00:13:06;;;;;;;2.22;0.28;;;;;;;;;;5041979;28;20041;-39
2023/03/27 00:15:33;;;;;;;1.00;0.30;;;;;;;;;;5040431;28;20056;-39
2023/03/27 00:18:02;;;;;;;0.32;0.22;;;;;;;;;;5045248;28;20048;-39
2023/03/27 00:20:29;;;;;;;0.30;0.30;;;;;;;;;;5040886;28;20501;-40
2023/03/27 00:22:55;;;;;;;0.65;0.25;;;;;;;;;;5048312;28;20477;-40
2023/03/27 00:25:25;;;;;;;0.30;0.30;;;;;;;;;;5051665;28;20052;-40
2023/03/27 00:27:53;;;;;;;0.28;0.28;;;;;;;;;;5048306;28;20036;-39
2023/03/27 00:30:19;;;;;;;0.20;0.20;;;;;;;;;;5050899;28;20077;-39
2023/03/27 00:32:45;;;;;;;0.20;0.20;;;;;;;;;;5063795;28;20056;-39
2023/03/27 00:35:12;;;;;;;0.25;0.20;;;;;;;;;;5063779;28;20037;-39
2023/03/27 00:37:38;;;;;;;0.55;0.38;;;;;;;;;;5062573;28;20024;-40
2023/03/27 00:40:07;;;;;;;0.20;0.20;;;;;;;;;;5062811;28;20363;-39
2023/03/27 00:42:33;;;;;;;0.38;0.20;;;;;;;;;;5059795;28;20043;-39
2023/03/27 00:45:00;;;;;;;3.10;0.35;;;;;;;;;;5061900;28;20025;-39
2023/03/27 00:47:31;;;;;;;0.35;0.30;;;;;;;;;;5064486;28;20381;-39
2023/03/27 00:50:00;;;;;;;0.30;0.30;;;;;;;;;;5062983;28;20043;-39
2023/03/27 00:52:28;;;;;;;0.25;0.20;;;;;;;;;;5060431;28;20131;-39
2023/03/27 00:54:56;;;;;;;0.10;0.10;;;;;;;;;;5063012;28;20123;-39
2023/03/27 00:57:21;;;;;;;0.25;0.20;;;;;;;;;;5039357;28;20051;-39
2023/03/27 00:59:50;;;;;;;0.10;0.10;;;;;;;;;;5039189;28;20108;-39
2023/03/27 01:02:16;;;;;;;0.30;0.20;;;;;;;;;;5060144;28;20037;-39
2023/03/27 01:04:43;;;;;;;0.43;0.30;;;;;;;;;;5064901;28;20060;-39
2023/03/27 01:07:10;;;;;;;0.90;0.22;;;;;;;;;;5048923;28;20040;-39
2023/03/27 01:09:36;;;;;;;0.70;0.20;;;;;;;;;;5047731;28;20063;-39
2023/03/27 01:12:37;;;;;;;0.47;0.10;;;;;;;;;;5043080;28;20068;-39
2023/03/27 01:15:38;;;;;;;0.38;0.20;;;;;;;;;;5048709;28;20393;-39
2023/03/27 01:18:09;;;;;;;0.10;0.10;;;;;;;;;;5061815;28;20039;-39
2023/03/27 01:21:21;;;;;;;0.43;0.30;;;;;;;;;;5053443;28;20091;-42
2023/03/27 01:24:04;;;;;;;0.20;0.20;;;;;;;;;;5004846;28;20042;-39
2023/03/27 01:27:11;;;;;;;1.20;0.20;;;;;;;;;;5008022;28;20050;-40
2023/03/27 01:29:49;;;;;;;0.20;0.20;;;;;;;;;;5012771;28;20121;-39
2023/03/27 01:32:40;;;;;;;0.15;0.15;;;;;;;;;;5004250;28;20073;-39
2023/03/27 01:35:30;;;;;;;0.13;0.13;;;;;;;;;;4966364;28;20086;-39
2023/03/27 01:38:08;;;;;;;0.10;0.10;;;;;;;;;;4974511;28;20176;-40
2023/03/27 01:40:50;;;;;;;0.13;0.10;;;;;;;;;;4972879;28;20643;-39
2023/03/27 01:43:38;;;;;;;0.32;0.32;;;;;;;;;;4983612;28;20108;-39
2023/03/27 01:46:21;;;;;;;0.10;0.10;;;;;;;;;;4979262;28;20050;-39
2023/03/27 01:48:58;;;;;;;0.20;0.17;;;;;;;;;;4985251;28;20030;-39
2023/03/27 01:51:45;;;;;;;0.10;0.03;;;;;;;;;;4987349;28;20063;-40
2023/03/27 01:54:21;;;;;;;0.20;0.20;;;;;;;;;;4985216;28;20082;-39
2023/03/27 01:57:03;;;;;;;0.20;0.20;;;;;;;;;;4986001;28;20503;-39
2023/03/27 01:59:32;;;;;;;0.10;0.10;;;;;;;;;;4984012;28;20050;-39
2023/03/27 02:02:02;;;;;;;0.10;0.10;;;;;;;;;;4998231;28;20410;-39
2023/03/27 02:04:36;;;;;;;0.20;0.20;;;;;;;;;;5000287;28;20034;-40
2023/03/27 02:07:07;;;;;;;0.20;0.20;;;;;;;;;;5004728;28;20050;-39
2023/03/27 02:09:38;;;;;;;0.10;0.10;;;;;;;;;;5002764;28;20030;-39
2023/03/27 02:12:18;;;;;;;0.10;0.10;;;;;;;;;;5020944;28;20114;-39
2023/03/27 02:14:55;;;;;;;0.43;0.20;;;;;;;;;;5043199;28;20074;-39
2023/03/27 02:17:25;;;;;;;0.20;0.20;;;;;;;;;;5044679;28;20037;-39
2023/03/27 02:19:59;;;;;;;0.90;0.10;;;;;;;;;;5045440;28;20044;-39
2023/03/27 02:22:24;;;;;;;0.28;0.28;;;;;;;;;;5062038;28;20036;-39
2023/03/27 02:24:55;;;;;;;0.10;0.10;;;;;;;;;;5061680;28;20943;-39
2023/03/27 02:27:39;;;;;;;0.20;0.20;;;;;;;;;;5062309;28;20036;-39
2023/03/27 02:30:16;;;;;;;0.20;0.20;;;;;;;;;;5055526;28;20061;-39
2023/03/27 02:32:46;;;;;;;0.15;0.15;;;;;;;;;;5062368;28;20766;-39
2023/03/27 02:35:39;;;;;;;0.20;0.20;;;;;;;;;;5057933;28;20037;-39
2023/03/27 02:39:02;;;;;;;0.20;0.20;;;;;;;;;;5046785;28;20053;-39
2023/03/27 02:41:36;;;;;;;0.73;0.40;;;;;;;;;;5023348;28;20046;-39
2023/03/27 02:44:13;;;;;;;0.20;0.17;;;;;;;;;;5022850;28;20042;-40
2023/03/27 02:46:42;;;;;;;0.30;0.30;;;;;;;;;;5022177;28;20053;-39
2023/03/27 02:49:22;;;;;;;0.30;0.30;;;;;;;;;;5023063;28;20094;-39
2023/03/27 02:51:54;;;;;;;0.30;0.30;;;;;;;;;;5023364;28;20072;-42
2023/03/27 02:54:24;;;;;;;;;;;;;;;;;;5024512;28;20029;-39
2023/03/27 02:56:56;;;;;;;0.10;0.10;;;;;;;;;;5051704;28;20034;-39
2023/03/27 02:59:26;;;;;;;0.30;0.30;;;;;;;;;;5059838;28;20035;-41
2023/03/27 03:01:52;;;;;;;0.10;0.10;;;;;;;;;;5057703;28;20459;-39
2023/03/27 03:04:21;;;;;;;0.10;0.10;;;;;;;;;;5061979;28;20068;-39
2023/03/27 03:06:46;;;;;;;0.10;0.10;;;;;;;;;;5059836;28;20516;-39
2023/03/27 03:09:13;;;;;;;0.30;0.30;;;;;;;;;;5056772;28;20044;-39
2023/03/27 03:11:46;;;;;;;0.10;0.10;;;;;;;;;;5054697;28;20053;-39
2023/03/27 03:14:11;;;;;;;;;;;;;;;;;;5061359;28;20744;-40
2023/03/27 03:16:37;;;;;;;0.20;0.20;;;;;;;;;;5056629;28;19928;-39
2023/03/27 03:19:02;;;;;;;0.10;0.10;;;;;;;;;;5059032;28;20032;-39
2023/03/27 03:21:27;;;;;;;0.10;0.10;;;;;;;;;;5061583;28;20040;-39
2023/03/27 03:23:53;;;;;;;0.10;0.10;;;;;;;;;;5053017;28;20039;-39
2023/03/27 03:26:19;;;;;;;0.20;0.20;;;;;;;;;;5045079;28;20041;-39
2023/03/27 03:28:46;;;;;;;0.10;0.10;;;;;;;;;;5040948;28;20504;-39
2023/03/27 03:31:11;;;;;;;0.13;0.13;;;;;;;;;;5046663;28;20505;-39
2023/03/27 03:33:37;;;;;;;0.10;0.10;;;;;;;;;;5057441;28;20107;-39
2023/03/27 03:36:04;;;;;;;0.20;0.20;;;;;;;;;;5047318;28;20048;-39
2023/03/27 03:38:30;;;;;;;0.03;0.03;;;;;;;;;;5036285;28;20101;-39
2023/03/27 03:40:57;;;;;;;0.08;0.08;;;;;;;;;;5038685;28;20048;-39
2023/03/27 03:43:25;;;;;;;0.20;0.20;;;;;;;;;;5044008;28;20104;-38
2023/03/27 03:45:52;;;;;;;0.10;0.10;;;;;;;;;;5042567;28;20505;-39
2023/03/27 03:48:19;;;;;;;2.35;0.22;;;;;;;;;;5038665;28;20025;-39
2023/03/27 03:50:46;;;;;;;0.20;0.20;;;;;;;;;;5040278;28;20131;-39
2023/03/27 03:53:12;;;;;;;0.57;0.10;;;;;;;;;;5040622;28;20061;-38
2023/03/27 03:55:38;;;;;;;2.40;0.15;;;;;;;;;;5043025;28;20472;-39
2023/03/27 03:58:03;;;;;;;0.10;0.10;;;;;;;;;;5047740;28;20120;-43
2023/03/27 04:00:29;;;;;;;0.65;0.20;;;;;;;;;;5048435;28;20072;-38
2023/03/27 04:02:55;;;;;;;0.17;0.17;;;;;;;;;;5040244;28;20067;-38
2023/03/27 04:05:21;;;;;;;0.10;0.10;;;;;;;;;;5045747;28;20037;-39
2023/03/27 04:07:48;;;;;;;0.17;0.17;;;;;;;;;;5042434;28;20033;-39
2023/03/27 04:10:14;;;;;;;0.45;0.30;;;;;;;;;;5042509;28;20535;-39
2023/03/27 04:12:44;;;;;;;0.13;0.13;;;;;;;;;;5049119;28;20055;-39
2023/03/27 04:15:10;;;;;;;2.13;0.28;;;;;;;;;;5050333;28;20021;-39
2023/03/27 04:17:37;;;;;;;0.45;0.20;;;;;;;;;;5048068;28;20027;-39
2023/03/27 04:20:04;;;;;;;0.10;0.10;;;;;;;;;;5048605;28;20110;-39
2023/03/27 04:22:30;;;;;;;0.13;0.13;;;;;;;;;;5041771;28;20084;-39
2023/03/27 04:24:56;;;;;;;0.40;0.10;;;;;;;;;;5044641;28;20029;-39
2023/03/27 04:27:22;;;;;;;0.55;0.20;;;;;;;;;;5037510;28;20469;-43
2023/03/27 04:29:47;;;;;;;0.10;0.10;;;;;;;;;;5038921;28;20029;-39
2023/03/27 04:32:17;;;;;;;0.10;0.10;;;;;;;;;;5044571;28;20127;-39
2023/03/27 04:34:44;;;;;;;0.10;0.10;;;;;;;;;;5044054;28;20049;-38
2023/03/27 04:37:10;;;;;;;0.95;0.17;;;;;;;;;;5042786;28;20080;-40
2023/03/27 04:39:41;;;;;;;0.20;0.20;;;;;;;;;;5047898;28;20052;-40
2023/03/27 04:42:10;;;;;;;0.10;0.10;;;;;;;;;;5045558;28;20029;-39
2023/03/27 04:44:36;;;;;;;3.00;0.20;;;;;;;;;;5043634;28;20021;-39
2023/03/27 04:47:05;;;;;;;0.20;0.20;;;;;;;;;;5056778;28;20059;-39
2023/03/27 04:49:37;;;;;;;0.30;0.30;;;;;;;;;;5042723;28;20036;-39
2023/03/27 04:52:06;;;;;;;0.75;0.20;;;;;;;;;;5047437;28;20090;-39
2023/03/27 04:54:32;;;;;;;0.10;0.10;;;;;;;;;;5052305;28;20095;-39
2023/03/27 04:57:00;;;;;;;0.10;0.10;;;;;;;;;;5043140;28;20052;-39
2023/03/27 04:59:30;;;;;;;0.10;0.10;;;;;;;;;;5046721;28;20424;-39
2023/03/27 05:01:57;;;;;;;0.10;0.10;;;;;;;;;;5042544;28;20486;-39
2023/03/27 05:04:25;;;;;;;0.10;0.10;;;;;;;;;;5043614;28;20040;-39
2023/03/27 05:06:52;;;;;;;0.10;0.10;;;;;;;;;;5048608;28;20049;-39
2023/03/27 05:09:17;;;;;;;0.30;0.30;;;;;;;;;;5044401;28;20033;-39
2023/03/27 05:11:43;;;;;;;0.13;0.13;;;;;;;;;;5042405;28;20132;-39
2023/03/27 05:14:09;;;;;;;0.20;0.20;;;;;;;;;;5042199;28;20401;-39
2023/03/27 05:16:34;;;;;;;0.20;0.20;;;;;;;;;;5052064;28;20036;-41
2023/03/27 05:19:02;;;;;;;0.20;0.20;;;;;;;;;;5062392;28;20083;-39
2023/03/27 05:21:27;;;;;;;2.92;0.20;;;;;;;;;;5061624;28;20057;-39
2023/03/27 05:23:53;;;;;;;3.97;0.50;;;;;;;;;;5061588;28;20064;-38
2023/03/27 05:26:18;;;;;;;0.30;0.20;;;;;;;;;;5058699;28;20040;-38
2023/03/27 05:28:44;;;;;;;0.10;0.10;;;;;;;;;;5057109;28;20025;-38
2023/03/27 05:31:09;;;;;;;0.95;0.30;;;;;;;;;;5058882;28;20131;-38
2023/03/27 05:33:35;;;;;;;0.30;0.25;;;;;;;;;;5059092;28;20111;-39
2023/03/27 05:36:01;;;;;;;0.47;0.30;;;;;;;;;;5057473;28;20045;-39
2023/03/27 05:38:27;;;;;;;0.20;0.20;;;;;;;;;;5054685;28;20733;-39
2023/03/27 05:40:52;;;;;;;0.28;0.28;;;;;;;;;;5054582;28;20043;-39
2023/03/27 05:43:18;;;;;;;0.25;0.25;;;;;;;;;;5044188;28;20154;-38
2023/03/27 05:45:43;;;;;;;0.20;0.20;;;;;;;;;;5047921;28;20112;-38
2023/03/27 05:48:08;;;;;;;4.00;0.30;;;;;;;;;;5044994;28;20029;-39
2023/03/27 05:50:34;;;;;;;0.20;0.20;;;;;;;;;;5047924;28;20126;-38
2023/03/27 05:53:03;;;;;;;0.25;0.22;;;;;;;;;;5047062;28;20520;-38
2023/03/27 05:55:30;;;;;;;0.20;0.20;;;;;;;;;;5046412;28;20041;-38
2023/03/27 05:57:56;;;;;;;1.48;0.30;;;;;;;;;;5046214;28;20103;-38
2023/03/27 06:00:24;;;;;;;0.47;0.20;;;;;;;;;;5044791;28;20127;-39
2023/03/27 06:02:53;;;;;;;0.25;0.25;;;;;;;;;;5040075;28;20035;-38
2023/03/27 06:05:19;;;;;;;0.45;0.45;;;;;;;;;;5041003;28;20048;-39
2023/03/27 06:07:46;;;;;;;0.35;0.35;;;;;;;;;;5039486;28;20132;-39
2023/03/27 06:10:19;;;;;;;2.03;0.60;;;;;;;;;;5042696;28;20097;-38
2023/03/27 06:12:45;;;;;;;0.55;0.55;;;;;;;;;;5041116;28;20393;-38
2023/03/27 06:15:11;;;;;;;2.38;0.38;;;;;;;;;;5037603;28;20032;-39
2023/03/27 06:17:41;;;;;;;0.30;0.30;;;;;;;;;;5038344;28;20046;-39
2023/03/27 06:20:11;;;;;;;0.70;0.43;;;;;;;;;;5041265;28;20022;-39
2023/03/27 06:22:45;;;;;;;0.98;0.30;;;;;;;;;;5039959;28;20037;-38
2023/03/27 06:25:10;;;;;;;0.52;0.40;;;;;;;;;;5040409;28;20480;-39
2023/03/27 06:27:36;;;;;;;1.08;0.40;;;;;;;;;;5038623;28;20033;-41
2023/03/27 06:30:03;;;;;;;1.90;0.40;;;;;;;;;;5038688;28;20029;-38
2023/03/27 06:32:29;;;;;;;0.30;0.30;;;;;;;;;;5037336;28;20047;-39
2023/03/27 06:34:54;;;;;;;6.72;0.75;;;;;;;;;;5038122;28;20025;-38
2023/03/27 06:37:19;;;;;;;0.32;0.32;;;;;;;;;;5041629;28;20528;-38
2023/03/27 06:39:45;;;;;;;1.02;0.52;;;;;;;;;;5040569;28;20029;-38
2023/03/27 06:42:11;;;;;;;0.30;0.30;;;;;;;;;;5041273;28;20036;-39
2023/03/27 06:44:36;;;;;;;0.82;0.57;;;;;;;;;;5037956;28;20021;-38
2023/03/27 06:47:01;;;;;;;0.43;0.30;;;;;;;;;;5034780;28;20052;-38
2023/03/27 06:49:27;;;;;;;2.40;0.70;;;;;;;;;;5041611;28;20025;-38
2023/03/27 06:51:52;;;;;;;0.63;0.50;;;;;;;;;;5039263;28;20045;-39
2023/03/27 06:54:18;;;;;;;2.42;0.60;;;;;;;;;;5042440;28;20082;-39
2023/03/27 06:56:43;;;;;;;0.57;0.32;;;;;;;;;;5044100;28;21658;-39
2023/03/27 06:59:09;;;;;;;0.50;0.38;;;;;;;;;;5041090;28;20143;-38
2023/03/27 07:01:34;;;;;;;2.88;0.50;;;;;;;;;;5037667;28;20029;-39
2023/03/27 07:04:00;;;;;;;0.32;0.30;;;;;;;;;;5045515;28;20033;-38
2023/03/27 07:06:25;;;;;;;0.95;0.55;;;;;;;;;;5050871;28;20513;-39
2023/03/27 07:08:51;;;;;;;0.68;0.65;;;;;;;;;;5060715;28;20044;-38
2023/03/27 07:11:16;;;;;;;0.38;0.38;;;;;;;;;;5049748;28;20037;-38
2023/03/27 07:13:42;;;;;;;0.30;0.30;;;;;;;;;;5037727;28;20041;-38
2023/03/27 07:16:10;;;;;;;4.85;0.68;;;;;;;;;;5040096;28;20045;-38
2023/03/27 07:18:36;;;;;;;6.00;0.60;;;;;;;;;;5043717;28;20032;-38
2023/03/27 07:21:01;;;;;;;0.95;0.32;;;;;;;;;;5051306;28;20041;-38
2023/03/27 07:23:27;;;;;;;3.85;0.40;;;;;;;;;;5059241;28;20048;-38
2023/03/27 07:26:00;;;;;;;0.30;0.30;;;;;;;;;;5061494;28;20048;-39
2023/03/27 07:28:25;;;;;;;1.55;0.40;;;;;;;;;;5060273;28;20029;-39
2023/03/27 07:30:51;;;;;;;0.45;0.38;;;;;;;;;;5055082;28;20420;-38
2023/03/27 07:33:17;;;;;;;0.38;0.38;;;;;;;;;;5040337;28;20372;-39
2023/03/27 07:35:45;;;;;;;2.78;0.45;;;;;;;;;;5039862;28;20506;-43
2023/03/27 07:38:11;;;;;;;1.75;0.60;;;;;;;;;;5042861;28;20025;-39
2023/03/27 07:40:37;;;;;;;0.80;0.38;;;;;;;;;;5043171;28;20037;-38
2023/03/27 07:43:05;;;;;;;0.20;0.20;;;;;;;;;;5042954;28;20462;-39
2023/03/27 07:45:32;;;;;;;7.95;0.50;;;;;;;;;;5040868;28;20045;-43
2023/03/27 07:48:05;;;;;;;3.28;0.50;;;;;;;;;;5037634;28;20434;-39
2023/03/27 07:50:32;;;;;;;3.65;0.32;;;;;;;;;;5042171;28;20036;-38
2023/03/27 07:52:57;;;;;;;0.55;0.30;;;;;;;;;;5043408;28;20033;-38
2023/03/27 07:55:23;;;;;;;2.20;0.50;;;;;;;;;;5040383;28;20095;-43
2023/03/27 07:57:48;;;;;;;0.40;0.40;;;;;;;;;;5039816;28;20108;-38
2023/03/27 08:00:15;;;;;;;0.20;0.20;;;;;;;;;;5040723;28;20029;-38
2023/03/27 08:02:41;;;;;;;0.55;0.55;;;;;;;;;;5042347;28;20060;-38
2023/03/27 08:05:08;;;;;;;3.20;0.40;;;;;;;;;;5040589;28;20083;-38
2023/03/27 08:07:39;;;;;;;1.38;0.65;;;;;;;;;;5037116;28;20034;-39
2023/03/27 08:10:06;;;;;;;1.02;0.43;;;;;;;;;;5039372;28;20104;-38
2023/03/27 08:12:33;;;;;;;2.17;0.50;;;;;;;;;;5039539;28;20052;-38
2023/03/27 08:14:59;;;;;;;3.00;0.40;;;;;;;;;;5041722;28;20103;-38
2023/03/27 08:17:26;;;;;;;2.05;0.55;;;;;;;;;;5043255;28;20025;-38
2023/03/27 08:19:52;;;;;;;2.05;0.47;;;;;;;;;;5044093;28;20559;-38
2023/03/27 08:22:19;;;;;;;3.75;0.40;;;;;;;;;;5042106;28;20041;-38
2023/03/27 08:24:45;;;;;;;0.60;0.60;;;;;;;;;;5041130;28;20025;-39
2023/03/27 08:27:11;;;;;;;4.32;0.40;;;;;;;;;;5042031;28;20502;-38
2023/03/27 08:29:37;;;;;;;2.80;0.60;;;;;;;;;;5040763;28;20107;-38
2023/03/27 08:32:03;;;;;;;0.73;0.50;;;;;;;;;;5041658;28;20045;-39
2023/03/27 08:34:29;;;;;;;0.40;0.40;;;;;;;;;;5040183;28;20138;-38
2023/03/27 08:36:55;;;;;;;3.45;1.08;;;;;;;;;;5041143;28;20505;-38
2023/03/27 08:39:21;;;;;;;0.50;0.50;;;;;;;;;;5040448;28;20052;-38
2023/03/27 08:41:59;;;;;;;1.45;0.43;;;;;;;;;;5040571;28;21629;-39
2023/03/27 08:44:26;;;;;;;0.70;0.70;;;;;;;;;;5045161;28;20388;-39
2023/03/27 08:47:00;;;;;;;1.02;0.30;;;;;;;;;;5039963;28;20052;-39
2023/03/27 08:49:30;;;;;;;0.28;0.28;;;;;;;;;;5042596;28;20101;-38
2023/03/27 08:51:57;;;;;;;0.98;0.77;;;;;;;;;;5048131;28;20045;-39
2023/03/27 08:54:29;;;;;;;2.03;0.70;;;;;;;;;;5045704;28;20036;-38
2023/03/27 08:56:55;;;;;;;0.30;0.30;;;;;;;;;;5056176;28;20132;-38
2023/03/27 08:59:23;;;;;;;10.70;0.85;;;;;;;;;;5061922;28;20107;-39
2023/03/27 09:01:53;;;;;;;18.83;0.90;;;;;;;;;;5063767;28;20032;-38
2023/03/27 09:04:47;;;;;;;1.00;0.60;;;;;;;;;;5062945;28;20032;-39
2023/03/27 09:07:50;;;;;;;7.75;0.70;;;;;;;;;;5060631;28;20252;-39
2023/03/27 09:10:28;;;;;;;3.13;0.73;;;;;;;;;;5064065;28;20051;-38
2023/03/27 09:12:58;;;;;;;5.47;0.70;;;;;;;;;;5065084;28;20059;-39
2023/03/27 09:15:28;;;;;;;0.55;0.55;;;;;;;;;;5060200;28;20397;-39
2023/03/27 09:18:01;;;;;;;4.03;0.80;;;;;;;;;;5060844;28;20072;-39
2023/03/27 09:20:37;;;;;;;0.47;0.45;;;;;;;;;;5061035;28;20094;-38
2023/03/27 09:23:21;;;;;;;5.55;0.60;;;;;;;;;;5056819;28;20041;-39
2023/03/27 09:25:52;;;;;;;1.35;0.60;;;;;;;;;;5054792;28;20067;-39
2023/03/27 09:28:22;;;;;;;0.38;0.38;;;;;;;;;;5039846;28;20108;-38
2023/03/27 09:30:48;;;;;;;4.07;0.77;;;;;;;;;;5041492;28;20041;-39
2023/03/27 09:33:13;;;;;;;14.90;1.13;;;;;;;;;;5044930;28;20123;-39
2023/03/27 09:35:39;;;;;;;11.93;1.00;;;;;;;;;;5051153;28;20858;-38
2023/03/27 09:38:27;;;;;;;7.63;1.05;;;;;;;;;;5065090;28;20139;-39
2023/03/27 09:41:13;;;;;;;4.72;0.90;;;;;;;;;;5053062;28;20068;-39
2023/03/27 09:43:43;;;;;;;3.72;0.93;;;;;;;;;;5046455;28;20029;-39
2023/03/27 09:46:11;;;;;;;0.52;0.50;;;;;;;;;;5047094;28;20041;-38
2023/03/27 09:48:55;;;;;;;0.98;0.50;;;;;;;;;;5062784;28;20033;-38
2023/03/27 09:51:37;;;;;;;6.57;0.70;;;;;;;;;;5049632;28;20384;-39
2023/03/27 09:54:04;;;;;;;3.53;0.73;;;;;;;;;;5039531;28;20040;-38
2023/03/27 09:56:30;;;;;;;1.08;0.70;;;;;;;;;;5044892;28;20083;-39
2023/03/27 09:58:59;;;;;;;1.25;0.68;;;;;;;;;;5048375;28;20033;-38
2023/03/27 10:01:34;;;;;;;3.28;0.65;;;;;;;;;;5044328;28;20115;-38
2023/03/27 10:04:08;;;;;;;0.73;0.60;;;;;;;;;;5043954;28;20068;-38
2023/03/27 10:06:48;;;;;;;5.50;1.05;;;;;;;;;;5042992;28;20075;-39
2023/03/27 10:09:23;;;;;;;4.15;1.23;;;;;;;;;;5044446;28;20021;-39
2023/03/27 10:11:57;;;;;;;4.40;0.65;;;;;;;;;;5038675;28;20033;-38
2023/03/27 10:14:25;;;;;;;0.45;0.45;;;;;;;;;;5045700;28;20089;-38
2023/03/27 10:16:50;;;;;;;1.15;0.52;;;;;;;;;;5055858;28;20670;-38
2023/03/27 10:19:32;;;;;;;0.75;0.57;;;;;;;;;;5043901;28;20036;-40
2023/03/27 10:22:20;;;;;;;2.28;1.17;;;;;;;;;;5052248;28;20067;-39
2023/03/27 10:24:46;;;;;;;8.35;0.77;;;;;;;;;;5042280;28;20032;-39
2023/03/27 10:27:19;;;;;;;0.40;0.40;;;;;;;;;;5059630;28;20049;-38
2023/03/27 10:29:44;;;;;;;2.88;1.27;;;;;;;;;;5057811;28;20494;-38
2023/03/27 10:32:10;;;;;;;0.65;0.52;;;;;;;;;;5042158;28;20095;-38
2023/03/27 10:34:48;;;;;;;0.43;0.43;;;;;;;;;;5038899;28;20044;-39
2023/03/27 10:37:26;;;;;;;0.60;0.60;;;;;;;;;;5035834;28;20079;-39
2023/03/27 10:39:53;;;;;;;4.90;0.60;;;;;;;;;;5036324;28;20686;-39
2023/03/27 10:42:21;;;;;;;0.40;0.40;;;;;;;;;;5037510;28;20041;-39
2023/03/27 10:44:47;;;;;;;2.70;0.38;;;;;;;;;;5040683;28;20064;-40
2023/03/27 10:47:23;;;;;;;0.50;0.50;;;;;;;;;;5043243;28;20048;-38
2023/03/27 10:50:02;;;;;;;4.65;0.73;;;;;;;;;;5046087;28;20485;-38
2023/03/27 10:52:57;;;;;;;9.57;0.75;;;;;;;;;;5056551;28;20079;-38
2023/03/27 10:55:50;;;;;;;3.50;0.60;;;;;;;;;;5057806;28;20842;-38
2023/03/27 10:58:19;;;;;;;0.75;0.38;;;;;;;;;;5058589;28;20098;-38
2023/03/27 11:01:09;;;;;;;0.40;0.40;;;;;;;;;;5055815;28;20044;-37
2023/03/27 11:03:55;;;;;;;0.55;0.30;;;;;;;;;;5051787;28;20550;-38
2023/03/27 11:06:24;;;;;;;0.80;0.50;;;;;;;;;;5044772;28;20044;-38
2023/03/27 11:09:22;;;;;;;0.77;0.57;;;;;;;;;;5037712;28;20033;-39
2023/03/27 11:11:52;;;;;;;6.85;1.17;;;;;;;;;;5050100;28;20072;-41
2023/03/27 11:14:31;;;;;;;2.03;0.93;;;;;;;;;;5057499;28;20050;-38
2023/03/27 11:17:02;;;;;;;3.40;0.57;;;;;;;;;;5050383;28;20075;-38
2023/03/27 11:19:45;;;;;;;2.40;1.48;;;;;;;;;;5045098;28;20033;-38
2023/03/27 11:22:18;;;;;;;0.38;0.38;;;;;;;;;;5057993;28;20118;-38
2023/03/27 11:24:57;;;;;;;1.08;0.40;;;;;;;;;;5060752;28;20421;-38
2023/03/27 11:27:33;;;;;;;0.52;0.52;;;;;;;;;;5060475;28;20124;-39
2023/03/27 11:30:16;;;;;;;5.72;0.70;;;;;;;;;;5055790;28;20032;-37
2023/03/27 11:33:10;;;;;;;2.88;0.50;;;;;;;;;;5057318;28;20472;-38
2023/03/27 11:35:42;;;;;;;2.65;0.40;;;;;;;;;;5058670;28;20401;-38
2023/03/27 11:38:15;;;;;;;;;;;;;;;;;;5061843;28;20119;-38
2023/03/27 11:40:44;;;;;;;7.40;0.70;;;;;;;;;;5060015;28;19952;-38
2023/03/27 11:43:11;;;;;;;1.05;0.68;;;;;;;;;;5059825;28;20151;-38
2023/03/27 11:46:05;;;;;;;0.65;0.50;;;;;;;;;;5058639;28;20094;-39
2023/03/27 11:48:42;;;;;;;5.32;0.68;;;;;;;;;;5057593;28;20090;-38
2023/03/27 11:51:16;;;;;;;4.65;0.65;;;;;;;;;;5056141;28;20065;-38
2023/03/27 11:53:58;;;;;;;1.23;0.93;;;;;;;;;;5060453;28;20055;-38
2023/03/27 11:56:51;;;;;;;0.30;0.28;;;;;;;;;;5061401;28;20529;-38
2023/03/27 11:59:40;;;;;;;3.60;0.45;;;;;;;;;;5059127;28;20104;-38
2023/03/27 12:02:39;;;;;;;2.03;0.50;;;;;;;;;;5058482;28;20049;-38
2023/03/27 12:05:36;;;;;;;1.67;0.47;;;;;;;;;;5056003;28;20032;-37
2023/03/27 12:08:39;;;;;;;0.52;0.52;;;;;;;;;;5046359;28;20044;-38
2023/03/27 12:11:09;;;;;;;1.58;0.50;;;;;;;;;;5043463;28;20130;-38
2023/03/27 12:13:52;;;;;;;1.42;0.40;;;;;;;;;;5045589;28;20609;-38
2023/03/27 12:16:35;;;;;;;0.57;0.50;;;;;;;;;;5053518;28;20044;-38
2023/03/27 12:19:07;;;;;;;1.05;0.47;;;;;;;;;;5056546;28;20028;-39
2023/03/27 12:21:32;;;;;;;0.40;0.38;;;;;;;;;;5051291;28;20048;-38
2023/03/27 12:24:13;;;;;;;2.15;0.60;;;;;;;;;;5044969;28;20033;-38
2023/03/27 12:26:50;;;;;;;4.38;0.70;;;;;;;;;;5046697;28;20044;-40
2023/03/27 12:29:27;;;;;;;1.05;0.50;;;;;;;;;;5049308;28;20112;-38
2023/03/27 12:32:11;;;;;;;1.65;0.40;;;;;;;;;;5048222;28;20037;-38
2023/03/27 12:34:53;;;;;;;2.78;0.63;;;;;;;;;;5048361;28;20044;-38
2023/03/27 12:37:24;;;;;;;4.60;0.70;;;;;;;;;;5055060;28;20589;-38
2023/03/27 12:39:55;;;;;;;2.45;0.45;;;;;;;;;;5040696;28;20036;-38
2023/03/27 12:42:38;;;;;;;0.50;0.28;;;;;;;;;;5037783;28;20623;-38
2023/03/27 12:45:21;;;;;;;1.23;0.47;;;;;;;;;;5043683;28;20526;-38
2023/03/27 12:48:08;;;;;;;4.63;0.85;;;;;;;;;;5039290;28;20033;-38
2023/03/27 12:50:56;;;;;;;0.95;0.80;;;;;;;;;;5045081;28;20045;-38
2023/03/27 12:53:24;;;;;;;0.63;0.63;;;;;;;;;;5044406;28;20041;-38
2023/03/27 12:56:16;;;;;;;1.05;0.70;;;;;;;;;;5042051;28;20127;-38
2023/03/27 12:58:50;;;;;;;2.95;0.60;;;;;;;;;;5038179;28;20048;-38
2023/03/27 13:01:25;;;;;;;0.85;0.52;;;;;;;;;;5039582;28;20521;-38
2023/03/27 13:03:56;;;;;;;5.97;0.70;;;;;;;;;;5041537;28;20029;-38
2023/03/27 13:06:34;;;;;;;4.33;0.63;;;;;;;;;;5047514;28;20102;-38
2023/03/27 13:09:10;;;;;;;5.25;0.40;;;;;;;;;;5046609;28;20510;-38
2023/03/27 13:12:13;;;;;;;4.88;0.52;;;;;;;;;;5057800;28;20128;-38
2023/03/27 13:15:36;;;;;;;2.45;0.70;;;;;;;;;;5060610;28;20049;-39
2023/03/27 13:18:13;;;;;;;5.88;0.85;;;;;;;;;;5024450;28;20707;-38
2023/03/27 13:20:53;;;;;;;1.92;0.60;;;;;;;;;;5026541;28;20096;-38
2023/03/27 13:23:30;;;;;;;0.90;0.30;;;;;;;;;;5025855;28;20038;-38
2023/03/27 13:26:31;;;;;;;0.43;0.40;;;;;;;;;;5024541;28;20514;-38
2023/03/27 13:28:57;;;;;;;5.15;0.75;;;;;;;;;;5023802;28;20053;-38
2023/03/27 13:31:44;;;;;;;3.83;0.60;;;;;;;;;;5025640;28;20030;-38
2023/03/27 13:34:34;;;;;;;7.25;1.10;;;;;;;;;;5025278;28;20048;-39
2023/03/27 13:37:10;;;;;;;1.88;0.60;;;;;;;;;;5022454;28;20075;-37
2023/03/27 13:39:44;;;;;;;1.73;0.47;;;;;;;;;;5026155;28;20030;-38
2023/03/27 13:42:16;;;;;;;4.47;0.73;;;;;;;;;;5022390;28;20049;-38
2023/03/27 13:44:49;;;;;;;1.60;0.40;;;;;;;;;;5024532;28;20128;-38
2023/03/27 13:47:33;;;;;;;2.30;0.57;;;;;;;;;;5005758;28;20153;-38
2023/03/27 13:50:26;;;;;;;3.22;1.00;;;;;;;;;;5057395;28;20048;-38
2023/03/27 13:53:10;;;;;;;2.83;1.25;;;;;;;;;;5063730;28;20059;-38
2023/03/27 13:56:10;;;;;;;0.75;0.50;;;;;;;;;;5062175;28;20194;-38
2023/03/27 13:58:57;;;;;;;1.65;0.60;;;;;;;;;;5062868;28;20032;-39
2023/03/27 14:01:32;;;;;;;0.77;0.60;;;;;;;;;;5062267;28;20400;-38
2023/03/27 14:04:20;;;;;;;2.13;0.30;;;;;;;;;;5060616;28;20151;-38
2023/03/27 14:07:27;;;;;;;1.05;0.55;;;;;;;;;;5058112;28;20131;-38
2023/03/27 14:09:55;;;;;;;4.85;0.90;;;;;;;;;;5063086;28;20644;-38
2023/03/27 14:12:26;;;;;;;1.15;0.35;;;;;;;;;;5062603;28;20048;-38
2023/03/27 14:15:29;;;;;;;2.72;0.60;;;;;;;;;;5062712;28;20040;-38
2023/03/27 14:18:27;;;;;;;1.92;0.68;;;;;;;;;;5063074;28;20510;-40
2023/03/27 14:21:02;;;;;;;1.42;0.60;;;;;;;;;;5057702;28;20037;-38
2023/03/27 14:23:33;;;;;;;2.38;0.50;;;;;;;;;;5056757;28;20490;-38
2023/03/27 14:26:10;;;;;;;0.65;0.50;;;;;;;;;;5063003;28;20078;-38
2023/03/27 14:28:57;;;;;;;1.70;0.90;;;;;;;;;;5060277;28;20501;-38
2023/03/27 14:31:25;;;;;;;0.93;0.57;;;;;;;;;;5060714;28;20121;-38
2023/03/27 14:34:05;;;;;;;2.25;0.60;;;;;;;;;;5057145;28;20111;-41
2023/03/27 14:36:32;;;;;;;1.35;0.60;;;;;;;;;;5055960;28;20090;-43
2023/03/27 14:39:18;;;;;;;3.50;0.50;;;;;;;;;;5061605;28;20097;-38
2023/03/27 14:41:51;;;;;;;3.00;0.70;;;;;;;;;;5062946;28;20576;-37
2023/03/27 14:44:19;;;;;;;4.13;0.70;;;;;;;;;;5060698;28;20028;-38
2023/03/27 14:46:47;;;;;;;2.00;1.10;;;;;;;;;;5061963;28;20070;-38
2023/03/27 14:49:19;;;;;;;7.72;0.70;;;;;;;;;;5062440;28;20044;-38
2023/03/27 14:51:46;;;;;;;3.72;0.82;;;;;;;;;;5061487;28;20451;-37
2023/03/27 14:54:27;;;;;;;1.50;0.68;;;;;;;;;;5054379;28;20033;-37
2023/03/27 14:57:03;;;;;;;6.63;0.90;;;;;;;;;;5061872;28;20188;-37
2023/03/27 14:59:41;;;;;;;4.00;0.65;;;;;;;;;;5061381;28;20020;-40
2023/03/27 15:02:22;;;;;;;1.20;1.00;;;;;;;;;;5060514;28;20040;-39
2023/03/27 15:04:47;;;;;;;5.22;1.02;;;;;;;;;;5061193;28;20636;-37
2023/03/27 15:07:18;;;;;;;3.20;0.52;;;;;;;;;;5060829;28;20123;-39
2023/03/27 15:09:45;;;;;;;3.78;0.60;;;;;;;;;;5061111;28;20032;-39
2023/03/27 15:12:11;;;;;;;1.55;0.50;;;;;;;;;;5057220;28;20393;-39
2023/03/27 15:14:38;;;;;;;9.38;1.20;;;;;;;;;;5060489;28;20100;-39
2023/03/27 15:17:13;;;;;;;1.38;0.73;;;;;;;;;;5035367;28;20164;-39